Time;durP1;ratioP1;P1;durP2;ratioP2;P2;SDS_P1;SDS_P2;PMS_P1;PMS_P2;Temp;Humidity;BMP_temperature;BMP_pressure;BME280_temperature;BME280_humidity;BME280_pressure;Samples;Min_cycle;Max_cycle;Signal;HPM_P1;HPM_P2
2023/07/26 00:00:13;;;;;;;19.48;16.58;;;12.90;99.90;;;;;;5080767;28;20024;-74
2023/07/26 00:02:41;;;;;;;21.90;14.88;;;12.90;99.90;;;;;;5094925;28;20028;-85
2023/07/26 00:05:07;;;;;;;16.65;14.80;;;12.90;99.90;;;;;;5087787;28;20020;-85
2023/07/26 00:07:33;;;;;;;19.38;15.55;;;12.90;99.90;;;;;;5092228;28;20305;-85
2023/07/26 00:09:58;;;;;;;18.08;14.27;;;12.90;99.90;;;;;;5091634;28;20509;-85
2023/07/26 00:12:26;;;;;;;21.20;16.35;;;12.90;99.90;;;;;;5086536;28;20368;-84
2023/07/26 00:14:52;;;;;;;18.25;15.43;;;12.90;99.90;;;;;;5093876;28;20453;-84
2023/07/26 00:17:18;;;;;;;18.48;16.30;;;12.90;99.90;;;;;;5093825;28;20419;-83
2023/07/26 00:19:44;;;;;;;25.60;17.98;;;12.90;99.90;;;;;;5094043;28;20019;-85
2023/07/26 00:22:09;;;;;;;21.83;16.40;;;13.00;99.90;;;;;;5090637;28;20096;-74
2023/07/26 00:24:35;;;;;;;18.35;16.38;;;13.00;99.90;;;;;;5096469;28;20016;-83
2023/07/26 00:27:00;;;;;;;21.90;16.52;;;13.00;99.90;;;;;;5094256;28;20024;-86
2023/07/26 00:29:26;;;;;;;22.58;17.40;;;13.00;99.90;;;;;;5093274;28;20026;-85
2023/07/26 00:31:52;;;;;;;24.27;18.73;;;13.00;99.90;;;;;;5094565;28;20095;-84
2023/07/26 00:34:17;;;;;;;24.25;18.27;;;13.00;99.90;;;;;;5079570;28;20024;-84
2023/07/26 00:36:43;;;;;;;22.45;16.88;;;13.10;99.90;;;;;;5094543;28;20024;-85
2023/07/26 00:39:08;;;;;;;17.67;15.75;;;13.10;99.90;;;;;;5095092;28;20087;-77
2023/07/26 00:41:34;;;;;;;25.05;17.88;;;13.10;99.90;;;;;;5104759;28;20082;-84
2023/07/26 00:43:59;;;;;;;23.27;18.48;;;13.10;99.90;;;;;;5111091;28;20044;-83
2023/07/26 00:46:26;;;;;;;20.52;16.27;;;13.10;99.90;;;;;;5103797;28;20449;-86
2023/07/26 00:48:52;;;;;;;19.90;16.20;;;13.20;99.90;;;;;;5103109;28;20024;-83
2023/07/26 00:51:18;;;;;;;21.40;16.25;;;13.10;99.90;;;;;;5102214;28;20027;-83
2023/07/26 00:53:44;;;;;;;17.55;15.10;;;13.20;99.90;;;;;;5097574;28;20031;-85
2023/07/26 00:56:10;;;;;;;18.67;15.23;;;13.20;99.90;;;;;;5091955;28;20024;-72
2023/07/26 00:58:36;;;;;;;20.52;15.48;;;13.20;99.90;;;;;;5094383;28;20042;-83
2023/07/26 01:01:03;;;;;;;17.23;15.18;;;13.20;99.90;;;;;;5097086;28;20440;-82
2023/07/26 01:03:32;;;;;;;16.90;14.10;;;13.20;99.90;;;;;;5094657;28;20024;-83
2023/07/26 01:06:34;;;;;;;21.88;14.75;;;13.20;99.90;;;;;;5093860;28;20098;-87
2023/07/26 01:09:13;;;;;;;18.92;13.63;;;13.20;99.90;;;;;;5094316;28;20437;-88
2023/07/26 01:11:48;;;;;;;16.67;12.05;;;13.20;99.90;;;;;;5086548;28;20031;-86
2023/07/26 01:14:23;;;;;;;18.50;12.35;;;13.20;99.90;;;;;;5082567;28;20033;-75
2023/07/26 01:16:48;;;;;;;15.45;11.52;;;13.20;99.90;;;;;;5091456;28;20031;-83
2023/07/26 01:19:14;;;;;;;15.32;11.38;;;13.20;99.90;;;;;;5092581;28;20024;-73
2023/07/26 01:21:40;;;;;;;12.65;9.60;;;13.20;99.90;;;;;;5092777;28;20074;-81
2023/07/26 01:24:05;;;;;;;10.18;7.97;;;13.20;99.90;;;;;;5093600;28;20023;-83
2023/07/26 01:26:33;;;;;;;8.68;7.40;;;13.20;99.90;;;;;;5091929;28;20031;-84
2023/07/26 01:28:58;;;;;;;11.35;7.68;;;13.10;99.90;;;;;;5093296;28;20024;-84
2023/07/26 01:31:24;;;;;;;14.18;7.60;;;13.10;99.90;;;;;;5091749;28;20368;-82
2023/07/26 01:33:54;;;;;;;14.60;9.40;;;13.00;99.90;;;;;;5085353;28;20027;-83
2023/07/26 01:36:22;;;;;;;14.15;10.18;;;13.00;99.90;;;;;;5089949;28;20095;-82
2023/07/26 01:38:49;;;;;;;12.95;11.57;;;13.00;99.90;;;;;;5090217;28;20028;-82
2023/07/26 01:41:16;;;;;;;14.43;10.70;;;12.90;99.90;;;;;;5091534;28;20027;-82
2023/07/26 01:43:42;;;;;;;16.60;10.68;;;12.90;99.90;;;;;;5084586;28;20046;-83
2023/07/26 01:46:11;;;;;;;15.05;9.57;;;12.90;99.90;;;;;;5112905;28;20337;-83
2023/07/26 01:48:37;;;;;;;11.55;9.15;;;12.80;99.90;;;;;;5110902;28;20074;-84
2023/07/26 01:51:03;;;;;;;12.05;8.98;;;12.80;99.90;;;;;;5108369;28;20489;-83
2023/07/26 01:53:28;;;;;;;13.15;8.80;;;12.80;99.90;;;;;;5112261;28;20031;-84
2023/07/26 01:55:54;;;;;;;10.80;7.95;;;12.70;99.90;;;;;;5112856;28;20019;-84
2023/07/26 01:58:19;;;;;;;12.55;8.23;;;12.70;99.90;;;;;;5112345;28;20050;-83
2023/07/26 02:00:45;;;;;;;7.95;7.15;;;12.70;99.90;;;;;;5113062;28;20067;-83
2023/07/26 02:03:10;;;;;;;9.95;7.25;;;12.60;99.90;;;;;;5123448;28;20034;-74
2023/07/26 02:05:45;;;;;;;11.93;7.90;;;12.60;99.90;;;;;;5110712;28;20055;-82
2023/07/26 02:08:11;;;;;;;9.90;7.53;;;12.60;99.90;;;;;;5104155;27;20468;-82
2023/07/26 02:10:38;;;;;;;11.40;7.18;;;12.60;99.90;;;;;;5106373;28;20107;-84
2023/07/26 02:13:06;;;;;;;11.00;6.95;;;12.60;99.90;;;;;;5110330;28;20396;-82
2023/07/26 02:15:32;;;;;;;17.65;8.13;;;12.60;99.90;;;;;;5111306;28;20023;-82
2023/07/26 02:17:57;;;;;;;12.27;7.32;;;12.60;99.90;;;;;;5124793;28;20107;-84
2023/07/26 02:20:26;;;;;;;8.50;6.50;;;12.60;99.90;;;;;;5111007;28;20060;-83
2023/07/26 02:22:53;;;;;;;9.40;6.10;;;12.60;99.90;;;;;;5102198;28;20099;-74
2023/07/26 02:25:18;;;;;;;8.75;7.18;;;12.60;99.90;;;;;;5102414;28;20407;-83
2023/07/26 02:27:44;;;;;;;8.43;6.18;;;12.50;99.90;;;;;;5119621;27;20019;-82
2023/07/26 02:30:09;;;;;;;6.47;5.88;;;12.60;99.90;;;;;;5109453;28;20031;-70
2023/07/26 02:32:35;;;;;;;9.05;6.05;;;12.50;99.90;;;;;;5119478;28;20031;-83
2023/07/26 02:35:01;;;;;;;8.13;6.30;;;12.50;99.90;;;;;;5098860;28;20373;-83
2023/07/26 02:37:26;;;;;;;6.63;5.45;;;12.50;99.90;;;;;;5112493;28;20024;-83
2023/07/26 02:39:52;;;;;;;11.45;6.10;;;12.50;99.90;;;;;;5112814;28;20015;-83
2023/07/26 02:42:18;;;;;;;7.53;5.40;;;12.50;99.90;;;;;;5112526;28;20448;-79
2023/07/26 02:44:47;;;;;;;7.88;5.85;;;12.50;99.90;;;;;;5112286;28;20500;-83
2023/07/26 02:47:15;;;;;;;7.50;5.20;;;12.50;99.90;;;;;;5107399;28;20414;-72
2023/07/26 02:49:41;;;;;;;7.80;4.75;;;12.50;99.90;;;;;;5113161;28;20448;-81
2023/07/26 02:52:07;;;;;;;10.73;5.15;;;12.50;99.90;;;;;;5113375;28;20031;-82
2023/07/26 02:54:35;;;;;;;7.60;4.97;;;12.50;99.90;;;;;;5112817;28;20035;-82
2023/07/26 02:57:01;;;;;;;7.35;5.20;;;12.50;99.90;;;;;;5114276;28;20023;-81
2023/07/26 02:59:26;;;;;;;6.68;5.22;;;12.50;99.90;;;;;;5112557;28;20035;-84
2023/07/26 03:01:52;;;;;;;6.95;5.35;;;12.50;99.90;;;;;;5113484;28;20062;-83
2023/07/26 03:04:18;;;;;;;7.95;5.18;;;12.50;99.90;;;;;;5106773;28;20455;-83
2023/07/26 03:06:43;;;;;;;7.95;5.10;;;12.60;99.90;;;;;;5113688;28;20023;-83
2023/07/26 03:09:12;;;;;;;6.60;5.00;;;12.60;99.90;;;;;;5113785;28;20051;-73
2023/07/26 03:11:37;;;;;;;8.45;5.05;;;12.60;99.90;;;;;;5110603;28;20345;-81
2023/07/26 03:14:03;;;;;;;6.88;4.68;;;12.70;99.90;;;;;;5106871;28;20034;-82
2023/07/26 03:16:28;;;;;;;8.52;5.80;;;12.70;99.90;;;;;;5104992;28;20024;-77
2023/07/26 03:18:54;;;;;;;5.63;5.03;;;12.60;99.90;;;;;;5113938;28;20031;-81
2023/07/26 03:21:20;;;;;;;5.88;4.97;;;12.70;99.90;;;;;;5107958;28;20019;-81
2023/07/26 03:23:45;;;;;;;5.47;4.65;;;12.60;99.90;;;;;;5111432;28;20023;-82
2023/07/26 03:26:12;;;;;;;5.78;4.95;;;12.60;99.90;;;;;;5117033;28;20039;-83
2023/07/26 03:28:38;;;;;;;15.13;5.85;;;12.60;99.90;;;;;;5117085;28;20051;-82
2023/07/26 03:31:06;;;;;;;7.25;4.60;;;12.60;99.90;;;;;;5130774;28;20027;-77
2023/07/26 03:33:32;;;;;;;5.95;4.85;;;12.60;99.90;;;;;;5137057;28;20114;-81
2023/07/26 03:35:58;;;;;;;7.97;5.55;;;12.60;99.90;;;;;;5137820;28;20106;-80
2023/07/26 03:38:23;;;;;;;7.53;5.80;;;12.60;99.90;;;;;;5129061;28;20004;-79
2023/07/26 03:40:49;;;;;;;6.60;5.15;;;12.60;99.90;;;;;;5138099;28;20035;-81
2023/07/26 03:43:14;;;;;;;5.75;4.43;;;12.50;99.90;;;;;;5135744;28;20030;-76
2023/07/26 03:45:40;;;;;;;5.63;4.80;;;12.60;99.90;;;;;;5122057;28;20030;-82
2023/07/26 03:48:06;;;;;;;9.00;5.30;;;12.50;99.90;;;;;;5116011;28;20081;-83
2023/07/26 03:50:32;;;;;;;8.90;5.25;;;12.50;99.90;;;;;;5114428;28;20616;-82
2023/07/26 03:52:59;;;;;;;7.35;4.85;;;;;;;;;;5115552;28;20031;-80
2023/07/26 03:55:27;;;;;;;6.18;5.53;;;13.90;99.90;;;;;;5114430;28;20015;-79
2023/07/26 03:57:53;;;;;;;9.38;5.20;;;12.80;99.90;;;;;;5089082;28;20547;-79
2023/07/26 04:00:18;;;;;;;6.35;5.55;;;12.60;99.90;;;;;;5112782;28;20054;-79
2023/07/26 04:02:44;;;;;;;10.25;4.95;;;12.50;99.90;;;;;;5115245;28;20332;-83
2023/07/26 04:05:10;;;;;;;6.63;4.97;;;12.50;99.90;;;;;;5120074;28;20028;-72
2023/07/26 04:07:36;;;;;;;7.30;5.28;;;12.40;99.90;;;;;;5102859;28;20029;-83
2023/07/26 04:10:03;;;;;;;7.93;5.35;;;12.40;99.90;;;;;;5100683;28;20432;-82
2023/07/26 04:12:28;;;;;;;12.30;5.72;;;12.40;99.90;;;;;;5117190;28;20023;-80
2023/07/26 04:14:54;;;;;;;7.88;4.97;;;12.40;99.90;;;;;;5117493;28;20039;-83
2023/07/26 04:17:19;;;;;;;7.10;4.88;;;12.50;99.90;;;;;;5117468;28;20467;-82
2023/07/26 04:19:45;;;;;;;6.28;4.60;;;12.50;99.90;;;;;;5115244;28;20020;-83
2023/07/26 04:22:10;;;;;;;6.65;4.55;;;12.50;99.90;;;;;;5083746;28;20031;-74
2023/07/26 04:24:44;;;;;;;7.32;5.43;;;12.60;99.90;;;;;;5116307;28;20023;-83
2023/07/26 04:27:10;;;;;;;8.32;4.43;;;12.60;99.90;;;;;;5122633;27;20024;-73
2023/07/26 04:29:35;;;;;;;6.05;4.82;;;12.60;99.90;;;;;;5111513;28;20107;-82
2023/07/26 04:32:01;;;;;;;7.15;4.85;;;12.60;99.90;;;;;;5120172;28;20076;-83
2023/07/26 04:34:27;;;;;;;11.00;4.82;;;12.70;99.90;;;;;;5109080;28;20123;-84
2023/07/26 04:36:52;;;;;;;6.47;4.88;;;12.70;99.90;;;;;;5114376;28;20091;-81
2023/07/26 04:39:18;;;;;;;6.60;4.80;;;12.70;99.90;;;;;;5116322;28;20020;-81
2023/07/26 04:41:43;;;;;;;7.03;4.70;;;12.80;99.90;;;;;;5117757;28;20084;-81
2023/07/26 04:44:09;;;;;;;6.47;5.03;;;12.80;99.90;;;;;;5114794;28;20396;-72
2023/07/26 04:46:35;;;;;;;9.88;4.35;;;12.90;99.90;;;;;;5106808;28;20034;-80
2023/07/26 04:49:01;;;;;;;8.57;4.47;;;12.90;99.90;;;;;;5114641;28;20023;-81
2023/07/26 04:51:26;;;;;;;6.75;3.92;;;13.00;99.90;;;;;;5112918;28;20093;-82
2023/07/26 04:53:52;;;;;;;6.05;4.13;;;13.00;99.90;;;;;;5114723;28;20023;-81
2023/07/26 04:56:18;;;;;;;8.90;4.75;;;13.10;99.90;;;;;;5114078;28;20023;-81
2023/07/26 04:58:43;;;;;;;7.97;4.55;;;13.10;99.90;;;;;;5115392;28;20438;-81
2023/07/26 05:01:09;;;;;;;5.03;3.95;;;13.20;99.90;;;;;;5110192;28;20026;-74
2023/07/26 05:03:36;;;;;;;4.82;3.97;;;13.10;99.90;;;;;;5107012;28;20035;-81
2023/07/26 05:06:02;;;;;;;7.30;4.45;;;13.20;99.90;;;;;;5116118;28;20031;-81
2023/07/26 05:08:28;;;;;;;5.03;4.32;;;13.10;99.90;;;;;;5115717;28;20024;-81
2023/07/26 05:10:54;;;;;;;9.88;4.57;;;13.10;99.90;;;;;;5116549;28;20023;-80
2023/07/26 05:13:20;;;;;;;5.15;4.10;;;13.20;99.90;;;;;;5115918;28;20122;-80
2023/07/26 05:15:47;;;;;;;4.85;4.07;;;13.20;99.90;;;;;;5115787;28;20023;-81
2023/07/26 05:18:14;;;;;;;4.50;3.70;;;13.20;99.90;;;;;;5113425;27;20019;-70
2023/07/26 05:20:40;;;;;;;5.55;3.75;;;13.20;99.90;;;;;;5129780;28;20053;-80
2023/07/26 05:23:06;;;;;;;5.25;3.83;;;13.30;99.90;;;;;;5134185;28;20030;-81
2023/07/26 05:25:32;;;;;;;4.70;4.30;;;13.30;99.90;;;;;;5130266;28;20008;-79
2023/07/26 05:27:58;;;;;;;7.53;4.68;;;13.30;99.90;;;;;;5133228;28;20012;-80
2023/07/26 05:30:23;;;;;;;7.93;4.28;;;13.30;99.90;;;;;;5129973;27;20068;-70
2023/07/26 05:32:49;;;;;;;4.18;3.42;;;13.30;99.90;;;;;;5125940;27;20034;-82
2023/07/26 05:35:15;;;;;;;5.43;3.60;;;13.30;99.90;;;;;;5120192;28;20035;-80
2023/07/26 05:37:40;;;;;;;6.70;4.57;;;13.30;99.90;;;;;;5114453;28;20368;-80
2023/07/26 05:40:07;;;;;;;5.60;4.00;;;13.30;99.90;;;;;;5111931;28;20028;-79
2023/07/26 05:42:32;;;;;;;7.57;4.05;;;13.30;99.90;;;;;;5112917;28;20457;-81
2023/07/26 05:44:58;;;;;;;8.68;4.22;;;13.30;99.90;;;;;;5095898;28;20071;-83
2023/07/26 05:47:24;;;;;;;5.60;3.85;;;13.30;99.90;;;;;;5090988;28;20024;-81
2023/07/26 05:49:50;;;;;;;5.63;3.75;;;13.40;99.90;;;;;;5088239;28;20051;-77
2023/07/26 05:52:15;;;;;;;4.50;3.50;;;13.50;99.90;;;;;;5091718;28;20033;-77
2023/07/26 05:54:41;;;;;;;6.88;3.50;;;13.70;99.90;;;;;;5093466;28;20043;-79
2023/07/26 05:57:07;;;;;;;6.32;3.88;;;13.80;99.90;;;;;;5106496;28;20028;-78
2023/07/26 05:59:32;;;;;;;5.97;3.10;;;14.00;99.90;;;;;;5095760;28;20810;-79
2023/07/26 06:01:58;;;;;;;5.28;3.17;;;14.10;99.90;;;;;;5092631;28;20396;-78
2023/07/26 06:04:24;;;;;;;4.80;3.30;;;14.20;99.90;;;;;;5089189;28;20052;-76
2023/07/26 06:06:50;;;;;;;5.32;3.33;;;14.40;99.90;;;;;;5088183;28;20475;-77
2023/07/26 06:09:15;;;;;;;6.80;3.33;;;14.50;99.90;;;;;;5091109;28;20041;-76
2023/07/26 06:11:42;;;;;;;5.57;3.50;;;14.60;99.90;;;;;;5091851;28;20110;-76
2023/07/26 06:14:08;;;;;;;7.75;3.17;;;14.70;99.90;;;;;;5091408;28;20073;-77
2023/07/26 06:16:34;;;;;;;5.22;3.25;;;14.90;99.90;;;;;;5085806;28;20035;-75
2023/07/26 06:18:59;;;;;;;6.40;3.08;;;15.00;99.90;;;;;;5088301;28;20032;-68
2023/07/26 06:21:27;;;;;;;8.88;3.45;;;15.20;99.90;;;;;;5095245;28;20024;-74
2023/07/26 06:23:53;;;;;;;7.43;3.53;;;15.30;99.90;;;;;;5084823;28;20012;-74
2023/07/26 06:26:19;;;;;;;6.57;3.50;;;15.50;99.90;;;;;;5080204;28;20024;-74
2023/07/26 06:28:44;;;;;;;7.72;2.72;;;15.60;99.90;;;;;;5086090;28;20012;-74
2023/07/26 06:31:11;;;;;;;10.15;2.95;;;15.70;99.90;;;;;;5093996;28;20023;-76
2023/07/26 06:33:37;;;;;;;4.15;2.50;;;15.90;99.90;;;;;;5092925;28;20070;-74
2023/07/26 06:36:03;;;;;;;6.88;2.80;;;16.00;99.90;;;;;;5088341;28;20040;-76
2023/07/26 06:38:28;;;;;;;5.60;2.83;;;16.10;99.90;;;;;;5090461;28;20696;-72
2023/07/26 06:40:54;;;;;;;5.72;2.40;;;16.20;99.90;;;;;;5090386;28;20020;-73
2023/07/26 06:43:22;;;;;;;4.82;2.30;;;16.20;99.90;;;;;;5083185;27;20108;-78
2023/07/26 06:45:50;;;;;;;4.00;2.00;;;16.00;99.90;;;;;;5065795;28;20460;-72
2023/07/26 06:48:19;;;;;;;7.90;2.63;;;16.20;99.90;;;;;;5090606;28;20016;-75
2023/07/26 06:50:46;;;;;;;8.38;2.80;;;16.20;99.90;;;;;;5067853;28;20081;-82
2023/07/26 06:53:12;;;;;;;4.22;2.30;;;16.30;99.90;;;;;;5082976;28;20027;-78
2023/07/26 06:55:38;;;;;;;9.88;2.60;;;16.20;99.90;;;;;;5077524;28;20024;-76
2023/07/26 06:58:04;;;;;;;4.85;2.40;;;16.30;99.90;;;;;;5090823;28;20047;-75
2023/07/26 07:00:30;;;;;;;5.82;2.33;;;16.40;99.90;;;;;;5088977;28;20583;-76
2023/07/26 07:03:00;;;;;;;6.55;2.65;;;16.40;99.90;;;;;;5090330;28;20042;-73
2023/07/26 07:05:30;;;;;;;6.88;2.47;;;16.30;99.90;;;;;;5089918;28;20028;-73
2023/07/26 07:07:56;;;;;;;4.57;2.65;;;16.20;99.90;;;;;;5077705;28;20027;-71
2023/07/26 07:10:23;;;;;;;4.03;2.30;;;16.20;99.90;;;;;;5086214;28;20040;-76
2023/07/26 07:12:49;;;;;;;10.27;3.38;;;16.10;99.90;;;;;;5091021;28;20078;-79
2023/07/26 07:15:15;;;;;;;3.92;3.03;;;15.90;99.90;;;;;;5089442;28;20461;-77
2023/07/26 07:17:40;;;;;;;6.45;2.70;;;15.70;99.90;;;;;;5090866;28;20027;-78
2023/07/26 07:20:08;;;;;;;4.75;2.70;;;15.60;99.90;;;;;;5065954;28;20043;-70
2023/07/26 07:22:37;;;;;;;6.15;3.45;;;15.40;99.90;;;;;;5069514;28;20039;-70
2023/07/26 07:25:04;;;;;;;3.57;2.97;;;15.30;99.90;;;;;;5078008;28;20119;-70
2023/07/26 07:27:29;;;;;;;8.98;3.30;;;15.20;99.90;;;;;;5089476;28;20057;-70
2023/07/26 07:29:57;;;;;;;5.10;3.22;;;15.00;99.90;;;;;;5090029;28;20016;-71
2023/07/26 07:32:23;;;;;;;4.43;3.40;;;15.00;99.90;;;;;;5090664;28;20487;-71
2023/07/26 07:34:49;;;;;;;6.03;3.67;;;14.80;99.90;;;;;;5101784;28;20024;-70
2023/07/26 07:37:14;;;;;;;7.45;3.75;;;14.70;99.90;;;;;;5087829;28;20024;-70
2023/07/26 07:39:43;;;;;;;4.57;3.55;;;14.50;99.90;;;;;;5084148;28;20458;-70
2023/07/26 07:42:08;;;;;;;5.65;4.13;;;14.30;99.90;;;;;;5090654;28;20020;-69
2023/07/26 07:44:34;;;;;;;9.95;4.00;;;14.00;99.90;;;;;;5100867;28;20191;-70
2023/07/26 07:46:59;;;;;;;8.63;3.53;;;13.90;99.90;;;;;;5111025;28;20050;-70
2023/07/26 07:49:25;;;;;;;8.15;3.90;;;13.70;99.90;;;;;;5109931;28;20020;-69
2023/07/26 07:51:53;;;;;;;5.03;3.78;;;13.70;99.90;;;;;;5111342;28;20456;-69
2023/07/26 07:54:19;;;;;;;7.30;5.15;;;13.80;99.90;;;;;;5106921;28;20031;-69
2023/07/26 07:56:45;;;;;;;7.40;4.95;;;13.90;99.90;;;;;;5111231;28;20023;-68
2023/07/26 07:59:11;;;;;;;6.32;4.82;;;14.00;99.90;;;;;;5110651;28;20015;-68
2023/07/26 08:01:37;;;;;;;9.52;4.43;;;14.00;99.90;;;;;;5110640;28;20157;-69
2023/07/26 08:04:03;;;;;;;8.95;4.45;;;14.10;99.90;;;;;;5111534;28;20084;-83
2023/07/26 08:06:34;;;;;;;6.13;3.95;;;14.20;99.90;;;;;;5109783;28;20445;-75
2023/07/26 08:09:00;;;;;;;5.50;4.22;;;14.20;99.90;;;;;;5091158;28;20027;-68
2023/07/26 08:11:25;;;;;;;8.32;4.03;;;14.20;99.90;;;;;;5107927;28;20022;-68
2023/07/26 08:13:51;;;;;;;6.20;4.32;;;14.10;99.90;;;;;;5114579;28;20039;-68
2023/07/26 08:16:16;;;;;;;5.60;4.40;;;14.20;99.90;;;;;;5113251;28;20020;-68
2023/07/26 08:18:42;;;;;;;9.75;4.25;;;14.20;99.90;;;;;;5114674;28;20024;-69
2023/07/26 08:21:11;;;;;;;5.80;3.70;;;14.30;99.90;;;;;;5113511;28;20367;-68
2023/07/26 08:23:37;;;;;;;8.37;4.40;;;14.20;99.90;;;;;;5117948;27;20057;-69
2023/07/26 08:26:04;;;;;;;4.70;3.47;;;14.20;99.90;;;;;;5113875;28;20452;-68
2023/07/26 08:28:30;;;;;;;7.07;4.05;;;14.20;99.90;;;;;;5112525;28;20106;-66
2023/07/26 08:30:59;;;;;;;4.35;3.25;;;14.20;99.90;;;;;;5113726;28;20099;-67
2023/07/26 08:33:27;;;;;;;5.18;2.85;;;14.20;99.90;;;;;;5113033;28;20023;-68
2023/07/26 08:35:53;;;;;;;5.35;3.00;;;14.20;99.90;;;;;;5113671;28;20028;-68
2023/07/26 08:38:19;;;;;;;4.60;3.03;;;14.20;99.90;;;;;;5112950;28;20052;-66
2023/07/26 08:40:48;;;;;;;5.50;3.00;;;14.20;99.90;;;;;;5110708;28;20051;-66
2023/07/26 08:43:18;;;;;;;3.85;2.50;;;14.30;99.90;;;;;;5112474;28;20608;-66
2023/07/26 08:45:44;;;;;;;5.47;2.50;;;14.30;99.90;;;;;;5103754;28;20035;-66
2023/07/26 08:48:11;;;;;;;4.72;1.92;;;14.30;99.90;;;;;;5113483;28;20095;-66
2023/07/26 08:50:41;;;;;;;2.40;1.63;;;14.40;99.90;;;;;;5109869;27;20059;-66
2023/07/26 08:53:08;;;;;;;3.65;1.88;;;14.50;99.90;;;;;;5100706;28;20024;-66
2023/07/26 08:55:34;;;;;;;3.58;1.60;;;14.70;99.90;;;;;;5112681;28;20175;-68
2023/07/26 08:58:03;;;;;;;8.82;1.77;;;14.80;99.90;;;;;;5111307;28;20027;-68
2023/07/26 09:00:30;;;;;;;2.00;1.45;;;15.00;99.90;;;;;;5110948;28;20023;-68
2023/07/26 09:02:58;;;;;;;1.85;1.30;;;15.00;99.90;;;;;;5108679;28;20468;-67
2023/07/26 09:05:24;;;;;;;1.58;1.17;;;15.10;99.90;;;;;;5112026;28;20035;-66
2023/07/26 09:07:51;;;;;;;7.45;1.42;;;15.20;99.90;;;;;;5113642;28;20016;-66
2023/07/26 09:10:28;;;;;;;2.00;1.08;;;15.40;99.90;;;;;;5107559;28;20017;-66
2023/07/26 09:13:11;;;;;;;1.25;0.75;;;15.70;99.90;;;;;;5113234;28;20073;-66
2023/07/26 09:15:38;;;;;;;6.28;1.10;;;15.80;99.90;;;;;;5111867;28;20073;-66
2023/07/26 09:18:07;;;;;;;1.23;0.60;;;15.90;99.90;;;;;;5117269;27;20035;-67
2023/07/26 09:20:33;;;;;;;2.25;0.75;;;16.10;99.90;;;;;;5104055;28;20022;-66
2023/07/26 09:23:03;;;;;;;0.50;0.50;;;16.20;99.90;;;;;;5111774;28;20452;-67
2023/07/26 09:25:42;;;;;;;1.47;0.60;;;16.30;99.90;;;;;;5110281;28;20066;-67
2023/07/26 09:28:10;;;;;;;1.58;0.88;;;16.30;99.90;;;;;;5111177;28;20410;-67
2023/07/26 09:30:37;;;;;;;1.48;0.70;;;16.40;99.90;;;;;;5111777;28;20089;-66
2023/07/26 09:33:05;;;;;;;2.72;0.80;;;16.40;99.90;;;;;;5111150;28;20035;-66
2023/07/26 09:35:32;;;;;;;0.80;0.52;;;16.50;99.90;;;;;;5110403;28;20019;-67
2023/07/26 09:37:58;;;;;;;1.83;1.13;;;16.50;99.90;;;;;;5112818;28;20019;-66
2023/07/26 09:40:32;;;;;;;2.15;0.50;;;16.70;99.90;;;;;;5111718;28;20024;-67
2023/07/26 09:42:57;;;;;;;1.42;0.80;;;16.80;99.90;;;;;;5111181;28;20035;-67
2023/07/26 09:45:24;;;;;;;1.48;0.80;;;16.80;99.90;;;;;;5117820;27;20039;-67
2023/07/26 09:47:53;;;;;;;1.38;0.80;;;16.70;99.90;;;;;;5110261;28;20058;-67
2023/07/26 09:50:29;;;;;;;0.90;0.87;;;16.60;99.90;;;;;;5112008;28;20356;-67
2023/07/26 09:52:56;;;;;;;3.30;0.70;;;16.40;99.90;;;;;;5111683;28;20038;-67
2023/07/26 09:55:25;;;;;;;1.10;1.00;;;16.20;99.90;;;;;;5115360;27;20031;-67
2023/07/26 09:57:55;;;;;;;3.00;0.85;;;16.00;99.90;;;;;;5112876;28;20099;-67
2023/07/26 10:00:26;;;;;;;;;;;15.80;99.90;;;;;;5111605;28;20026;-67
2023/07/26 10:03:03;;;;;;;1.92;0.88;;;15.80;99.90;;;;;;5094401;28;19907;-67
2023/07/26 10:05:35;;;;;;;2.22;1.00;;;15.90;99.90;;;;;;5110919;28;20458;-67
2023/07/26 10:08:01;;;;;;;0.75;0.70;;;16.10;99.90;;;;;;5112628;28;20019;-68
2023/07/26 10:10:28;;;;;;;1.42;0.73;;;16.40;99.90;;;;;;5057309;28;20047;-67
2023/07/26 10:12:57;;;;;;;4.57;0.90;;;16.70;99.90;;;;;;5112229;28;20031;-68
2023/07/26 10:15:25;;;;;;;2.53;1.00;;;17.10;99.90;;;;;;5110557;28;20501;-67
2023/07/26 10:17:52;;;;;;;2.22;0.90;;;17.40;99.90;;;;;;5112445;28;20023;-67
2023/07/26 10:20:18;;;;;;;1.42;1.00;;;17.70;99.90;;;;;;5111034;28;20019;-67
2023/07/26 10:22:47;;;;;;;2.65;1.30;;;17.70;99.90;;;;;;5111960;28;20436;-68
2023/07/26 10:25:12;;;;;;;1.13;1.02;;;17.50;99.90;;;;;;5110829;28;20042;-68
2023/07/26 10:27:40;;;;;;;2.35;1.00;;;17.40;99.90;;;;;;5103545;27;20083;-68
2023/07/26 10:30:07;;;;;;;1.08;0.98;;;17.20;99.90;;;;;;5111759;28;20016;-68
2023/07/26 10:32:40;;;;;;;1.10;1.00;;;17.10;99.90;;;;;;5111139;28;20574;-67
2023/07/26 10:35:06;;;;;;;2.30;1.38;;;17.10;99.90;;;;;;5110779;28;20104;-67
2023/07/26 10:37:33;;;;;;;1.42;1.20;;;17.10;99.90;;;;;;5111178;28;20016;-67
2023/07/26 10:40:04;;;;;;;1.85;1.17;;;17.10;99.90;;;;;;5111874;28;20047;-67
2023/07/26 10:42:30;;;;;;;2.55;1.13;;;17.10;99.90;;;;;;5108999;28;20525;-68
2023/07/26 10:45:01;;;;;;;1.42;1.20;;;17.30;99.90;;;;;;5105544;28;20047;-67
2023/07/26 10:47:27;;;;;;;2.20;1.10;;;17.50;99.90;;;;;;5109671;28;20084;-74
2023/07/26 10:49:54;;;;;;;2.50;1.17;;;17.60;99.90;;;;;;5111272;28;20027;-67
2023/07/26 10:52:33;;;;;;;2.97;0.93;;;17.80;99.90;;;;;;5110724;28;20076;-68
2023/07/26 10:54:58;;;;;;;2.15;1.27;;;18.00;99.90;;;;;;5106682;28;20439;-68
2023/07/26 10:57:36;;;;;;;3.78;1.50;;;18.10;99.90;;;;;;5116859;28;20095;-68
2023/07/26 11:00:10;;;;;;;3.50;1.30;;;18.20;99.90;;;;;;5098942;28;20095;-68
2023/07/26 11:02:36;;;;;;;1.90;1.02;;;18.50;99.90;;;;;;5110754;28;20027;-68
2023/07/26 11:05:09;;;;;;;3.47;1.85;;;18.70;99.90;;;;;;5105942;28;20464;-68
2023/07/26 11:07:58;;;;;;;1.10;1.02;;;;;;;;;;5097207;28;20024;-76
2023/07/26 11:10:34;;;;;;;3.10;1.58;;;;;;;;;;5103950;28;20036;-72
2023/07/26 11:13:09;;;;;;;2.63;1.48;;;;;;;;;;5098461;28;20020;-76
2023/07/26 11:15:36;;;;;;;3.05;1.35;;;;;;;;;;5103046;28;20034;-72
2023/07/26 11:18:02;;;;;;;1.52;1.20;;;;;;;;;;5100422;28;20024;-80
2023/07/26 11:20:28;;;;;;;2.30;1.50;;;;;;;;;;5117355;28;20016;-78
2023/07/26 11:22:54;;;;;;;2.22;1.42;;;;;;;;;;5111720;28;20016;-75
2023/07/26 11:25:20;;;;;;;2.05;1.55;;;;;;;;;;5108236;28;20092;-69
2023/07/26 11:27:50;;;;;;;2.35;1.42;;;;;;;;;;5111284;28;20062;-70
2023/07/26 11:30:20;;;;;;;2.70;1.55;;;;;;;;;;5109675;28;20464;-69
2023/07/26 11:32:47;;;;;;;2.22;1.58;;;20.80;99.90;;;;;;5111991;28;20360;-68
2023/07/26 11:35:18;;;;;;;4.43;1.52;;;20.80;99.90;;;;;;5109255;28;20038;-68
2023/07/26 11:37:54;;;;;;;3.97;1.65;;;20.70;99.90;;;;;;5111249;28;20391;-68
2023/07/26 11:40:20;;;;;;;2.17;1.73;;;20.50;99.90;;;;;;5109380;28;20380;-71
2023/07/26 11:42:47;;;;;;;2.22;1.55;;;20.60;99.90;;;;;;5110832;28;20028;-70
2023/07/26 11:45:13;;;;;;;5.07;1.52;;;20.70;99.90;;;;;;5093942;28;20097;-69
2023/07/26 11:47:39;;;;;;;5.07;1.80;;;21.00;99.90;;;;;;5094397;28;20030;-69
2023/07/26 11:50:05;;;;;;;1.73;1.20;;;21.40;99.90;;;;;;5094365;28;20036;-70
2023/07/26 11:52:32;;;;;;;4.35;1.60;;;21.70;99.90;;;;;;5086475;28;20047;-70
2023/07/26 11:54:59;;;;;;;2.08;1.52;;;21.90;99.90;;;;;;5093922;28;20137;-69
2023/07/26 11:57:28;;;;;;;2.30;1.45;;;21.80;99.20;;;;;;5095136;28;20023;-68
2023/07/26 12:00:03;;;;;;;5.30;1.63;;;21.50;98.90;;;;;;5095027;28;20040;-69
2023/07/26 12:02:29;;;;;;;2.33;1.73;;;21.30;99.50;;;;;;5093755;28;20028;-69
2023/07/26 12:05:18;;;;;;;3.17;1.60;;;21.00;99.60;;;;;;5088139;28;20354;-68
2023/07/26 12:07:54;;;;;;;2.10;1.90;;;21.00;98.90;;;;;;5088448;28;20027;-68
2023/07/26 12:10:37;;;;;;;3.22;2.13;;;20.80;99.20;;;;;;5091418;28;20495;-69
2023/07/26 12:13:07;;;;;;;3.45;2.05;;;21.20;96.90;;;;;;5092804;28;20027;-68
2023/07/26 12:15:49;;;;;;;3.13;1.80;;;21.50;99.90;;;;;;5092600;28;20263;-68
2023/07/26 12:18:14;;;;;;;3.95;2.22;;;22.00;99.90;;;;;;5090925;28;20032;-72
2023/07/26 12:20:59;;;;;;;3.80;2.30;;;22.30;99.90;;;;;;5093660;28;20020;-74
2023/07/26 12:23:51;;;;;;;3.63;2.20;;;21.30;95.00;;;;;;5093726;28;20104;-73
2023/07/26 12:26:24;;;;;;;5.28;2.00;;;22.30;95.60;;;;;;5092327;28;20103;-68
2023/07/26 12:28:54;;;;;;;3.13;2.00;;;22.30;95.20;;;;;;5089059;28;20456;-68
2023/07/26 12:31:24;;;;;;;1.85;1.73;;;22.10;95.10;;;;;;5084620;28;20028;-72
2023/07/26 12:33:57;;;;;;;2.47;1.70;;;22.00;95.20;;;;;;5090881;28;20036;-72
2023/07/26 12:36:25;;;;;;;4.57;2.40;;;21.80;95.40;;;;;;5092305;28;20089;-72
2023/07/26 12:38:50;;;;;;;11.75;2.65;;;21.90;95.60;;;;;;5093344;28;20107;-71
2023/07/26 12:41:16;;;;;;;7.18;2.67;;;22.20;94.80;;;;;;5080180;28;20100;-68
2023/07/26 12:43:43;;;;;;;5.47;2.35;;;22.10;94.10;;;;;;5089414;28;20039;-68
2023/07/26 12:46:09;;;;;;;3.55;2.03;;;22.00;93.60;;;;;;5090704;28;20035;-68
2023/07/26 12:48:35;;;;;;;4.38;2.75;;;21.70;93.80;;;;;;5097051;28;20044;-69